Time;durP1;ratioP1;P1;durP2;ratioP2;P2;SDS_P1;SDS_P2;PMS_P1;PMS_P2;Temp;Humidity;BMP_temperature;BMP_pressure;BME280_temperature;BME280_humidity;BME280_pressure;Samples;Min_cycle;Max_cycle;Signal;HPM_P1;HPM_P2
2021/07/15 00:02:16;;;;;;;35.15;15.52;;;;;;;18.93;80.09;101450.81;10501828;28;20067;-74
2021/07/15 00:07:17;;;;;;;28.65;14.30;;;;;;;18.84;80.34;101452.25;10501078;28;20458;-74
2021/07/15 00:12:17;;;;;;;30.60;15.30;;;;;;;18.70;80.58;101448.06;10483890;28;20028;-74
2021/07/15 00:17:18;;;;;;;24.90;17.00;;;;;;;18.51;80.02;101412.50;10501332;28;20040;-74
2021/07/15 00:22:18;;;;;;;38.90;14.77;;;;;;;18.19;79.97;101362.66;10501271;28;20031;-74
2021/07/15 00:27:18;;;;;;;36.63;16.05;;;;;;;19.04;80.40;101482.06;10483124;28;20405;-74
2021/07/15 00:32:19;;;;;;;21.23;13.30;;;;;;;19.01;80.29;101477.03;10500753;28;20037;-74
2021/07/15 00:37:19;;;;;;;25.42;13.07;;;;;;;18.81;80.09;101472.75;10499501;28;20056;-74
2021/07/15 00:42:19;;;;;;;24.33;14.80;;;;;;;18.80;80.75;101481.25;10500056;28;20028;-74
2021/07/15 00:47:20;;;;;;;29.60;14.60;;;;;;;18.94;80.80;101466.19;10500274;28;20480;-74
2021/07/15 00:52:20;;;;;;;18.10;13.77;;;;;;;18.79;80.10;101444.75;10448769;28;20036;-74
2021/07/15 00:57:21;;;;;;;21.88;15.20;;;;;;;18.93;79.90;101470.03;10481144;28;20476;-74
2021/07/15 01:02:21;;;;;;;25.88;15.27;;;;;;;18.83;80.20;101471.72;10465407;28;20051;-74
2021/07/15 01:07:22;;;;;;;25.10;16.52;;;;;;;18.38;80.34;101398.16;10463945;28;20478;-73
2021/07/15 01:12:51;;;;;;;23.85;16.60;;;;;;;18.69;80.01;101408.78;10499145;28;20066;-74
2021/07/15 01:18:09;;;;;;;31.38;17.17;;;;;;;18.80;80.47;101476.59;10476487;28;20072;-74
2021/07/15 01:23:21;;;;;;;27.05;16.75;;;;;;;18.88;79.81;101460.84;10480722;28;20052;-73
2021/07/15 01:29:12;;;;;;;24.58;14.90;;;;;;;18.85;80.28;101470.38;10481668;28;20060;-73
2021/07/15 01:34:13;;;;;;;30.77;17.55;;;;;;;18.61;80.64;101471.41;10454018;28;20074;-74
2021/07/15 01:39:14;;;;;;;34.20;16.30;;;;;;;18.76;80.60;101478.16;10480357;28;20501;-74
2021/07/15 01:44:17;;;;;;;37.47;17.35;;;;;;;18.69;80.56;101487.50;10463221;28;20158;-74
2021/07/15 01:49:18;;;;;;;31.00;14.77;;;;;;;18.77;80.12;101473.50;10480503;28;20384;-74
2021/07/15 01:54:19;;;;;;;20.88;14.27;;;;;;;18.76;80.60;101477.28;10480159;28;20028;-73
2021/07/15 01:59:23;;;;;;;26.35;13.38;;;;;;;18.72;80.49;101476.94;10479932;28;20040;-73
2021/07/15 02:04:23;;;;;;;28.23;15.93;;;;;;;18.76;80.36;101489.13;10462315;28;20102;-74
2021/07/15 02:09:24;;;;;;;29.98;14.48;;;;;;;18.72;79.82;101470.56;10497207;28;20082;-73
2021/07/15 02:14:24;;;;;;;18.85;13.07;;;;;;;18.61;80.55;101494.19;10479702;28;20056;-73
2021/07/15 02:19:25;;;;;;;20.75;13.52;;;;;;;18.55;80.61;101457.56;10463000;28;20174;-73
2021/07/15 02:24:26;;;;;;;24.30;14.30;;;;;;;18.55;80.39;101456.75;10462576;28;20021;-73
2021/07/15 02:29:27;;;;;;;23.85;13.35;;;;;;;18.45;81.17;101481.19;10479281;28;20399;-73
2021/07/15 02:34:39;;;;;;;30.25;14.65;;;;;;;18.37;80.73;101413.78;10478148;28;20120;-73
2021/07/15 02:39:39;;;;;;;23.23;14.07;;;;;;;18.33;80.98;101413.44;10463890;28;20056;-73
2021/07/15 02:44:42;;;;;;;23.38;13.98;;;;;;;18.14;80.83;101378.97;10479036;28;20032;-73
2021/07/15 02:49:44;;;;;;;28.02;15.57;;;;;;;18.27;80.69;101414.38;10479147;28;20074;-74
2021/07/15 02:54:44;;;;;;;33.10;14.27;;;;;;;18.51;80.77;101441.84;10479130;28;20029;-73
2021/07/15 02:59:51;;;;;;;38.03;16.08;;;;;;;18.64;80.59;101425.16;10496450;28;20047;-73
2021/07/15 03:05:09;;;;;;;31.00;17.15;;;;;;;18.28;80.50;101410.56;10477585;28;20131;-73
2021/07/15 03:10:10;;;;;;;29.75;17.13;;;;;;;18.58;81.04;101426.09;10463165;28;20032;-73
2021/07/15 03:15:11;;;;;;;27.23;16.10;;;;;;;18.42;80.65;101413.09;10461956;28;20392;-73
2021/07/15 03:20:15;;;;;;;26.20;16.25;;;;;;;18.15;80.88;101382.53;10478752;28;20083;-73
2021/07/15 03:25:16;;;;;;;23.35;12.55;;;;;;;18.58;80.86;101450.78;10485572;28;20047;-73
2021/07/15 03:30:16;;;;;;;33.33;14.63;;;;;;;18.59;80.67;101458.75;10485535;28;20043;-73
2021/07/15 03:35:17;;;;;;;42.05;15.32;;;;;;;18.57;80.71;101443.63;10484297;28;20075;-73
2021/07/15 03:40:25;;;;;;;24.65;15.52;;;;;;;18.23;81.08;101429.63;10485091;28;20052;-73
2021/07/15 03:45:26;;;;;;;24.48;13.85;;;;;;;18.41;80.57;101447.91;10485062;28;20442;-73
2021/07/15 03:50:29;;;;;;;29.42;13.52;;;;;;;18.54;80.75;101453.16;10468045;28;20126;-74
2021/07/15 03:55:36;;;;;;;24.33;12.82;;;;;;;18.49;80.53;101433.84;10484470;28;20388;-73
2021/07/15 04:00:37;;;;;;;21.88;13.05;;;;;;;18.70;80.32;101461.78;10484569;28;20387;-75
2021/07/15 04:05:38;;;;;;;26.88;12.75;;;;;;;18.56;80.29;101422.75;10483244;28;20032;-75
2021/07/15 04:10:39;;;;;;;38.97;15.30;;;;;;;18.91;80.21;101476.81;10483984;28;20033;-74
2021/07/15 04:16:09;;;;;;;28.35;13.10;;;;;;;18.87;79.97;101476.47;10466215;28;20038;-74
2021/07/15 04:21:10;;;;;;;30.63;13.15;;;;;;;18.81;80.48;101475.50;10467109;28;20436;-74
2021/07/15 04:26:11;;;;;;;27.40;13.23;;;;;;;18.93;80.55;101500.22;10409243;28;20058;-74
2021/07/15 04:31:36;;;;;;;29.83;13.48;;;;;;;19.19;79.74;101503.53;10425092;28;20032;-74
2021/07/15 04:36:36;;;;;;;30.40;16.23;;;;;;;18.63;79.59;101419.88;10440911;28;20106;-74
2021/07/15 04:41:37;;;;;;;28.13;15.13;;;;;;;19.17;79.74;101503.78;10424230;28;20029;-74
2021/07/15 04:46:37;;;;;;;30.08;14.82;;;;;;;18.99;79.88;101498.44;10441362;28;20555;-74
2021/07/15 04:51:41;;;;;;;33.65;14.45;;;;;;;18.88;79.59;101499.25;10441140;28;20037;-74
2021/07/15 04:56:43;;;;;;;21.35;12.35;;;;;;;18.60;80.40;101467.81;10424494;28;20086;-74
2021/07/15 05:01:43;;;;;;;39.80;15.75;;;;;;;19.05;80.21;101514.78;10440695;28;20194;-74
2021/07/15 05:06:43;;;;;;;19.02;11.98;;;;;;;19.10;79.55;101524.19;10439350;28;20036;-74
2021/07/15 05:11:44;;;;;;;35.10;13.32;;;;;;;18.86;79.63;101480.28;10440273;28;20032;-74
2021/07/15 05:16:44;;;;;;;28.20;12.75;;;;;;;19.23;79.71;101522.03;10439883;28;20120;-74
2021/07/15 05:21:45;;;;;;;20.77;11.35;;;;;;;19.19;78.42;101531.00;10422947;28;20088;-74
2021/07/15 05:26:45;;;;;;;27.98;10.65;;;;;;;19.10;79.86;101526.94;10457716;28;20045;-74
2021/07/15 05:31:45;;;;;;;21.30;11.90;;;;;;;19.18;79.31;101521.94;10457447;28;20045;-74
2021/07/15 05:36:46;;;;;;;41.33;11.13;;;;;;;19.17;79.47;101528.47;10456006;28;20610;-74
2021/07/15 05:41:47;;;;;;;23.73;11.30;;;;;;;19.43;79.13;101518.94;10456836;28;20024;-74
2021/07/15 05:46:47;;;;;;;22.20;9.88;;;;;;;19.28;77.79;101502.94;10455786;28;20037;-74
2021/07/15 05:51:49;;;;;;;30.83;10.98;;;;;;;19.47;78.74;101538.50;10456462;28;20077;-74
2021/07/15 05:56:50;;;;;;;21.65;11.68;;;;;;;18.99;78.63;101488.28;10456015;28;20476;-73
2021/07/15 06:01:50;;;;;;;13.75;10.27;;;;;;;19.21;78.25;101520.63;10438440;28;20123;-73
2021/07/15 06:06:51;;;;;;;35.38;14.38;;;;;;;18.98;78.70;101481.09;10455152;28;20056;-73
2021/07/15 06:11:51;;;;;;;27.98;13.07;;;;;;;19.29;78.45;101551.28;10437882;28;20037;-73
2021/07/15 06:16:52;;;;;;;16.67;9.98;;;;;;;19.13;79.16;101543.78;10437866;28;20029;-74
2021/07/15 06:21:52;;;;;;;17.75;9.65;;;;;;;19.14;78.39;101553.66;10437205;28;20476;-73
2021/07/15 06:26:52;;;;;;;23.90;10.23;;;;;;;19.24;78.80;101551.19;10455142;28;20048;-73
2021/07/15 06:31:53;;;;;;;27.55;12.07;;;;;;;19.26;78.30;101553.69;10455211;28;20036;-74
2021/07/15 06:36:53;;;;;;;14.02;10.45;;;;;;;19.27;77.63;101512.25;10491938;28;20127;-74
2021/07/15 06:41:54;;;;;;;24.23;10.38;;;;;;;19.44;77.97;101544.47;10496775;28;20399;-74
2021/07/15 06:46:54;;;;;;;18.98;10.48;;;;;;;19.68;77.34;101565.34;10460639;28;20391;-74
2021/07/15 06:51:55;;;;;;;14.40;11.88;;;;;;;19.92;77.97;101568.88;10437290;28;20112;-75
2021/07/15 06:56:56;;;;;;;26.85;11.65;;;;;;;19.40;75.98;101458.13;10458216;28;20040;-75
2021/07/15 07:01:56;;;;;;;17.75;10.48;;;;;;;20.25;76.20;101555.50;10462391;28;20044;-74
2021/07/15 07:06:57;;;;;;;15.07;10.02;;;;;;;20.39;75.40;101563.22;10462892;28;20044;-73
2021/07/15 07:11:57;;;;;;;16.02;10.77;;;;;;;20.15;75.44;101576.22;10479941;28;20044;-73
2021/07/15 07:16:58;;;;;;;11.02;9.35;;;;;;;20.17;74.82;101576.81;10503447;28;20029;-73
2021/07/15 07:21:58;;;;;;;18.55;7.70;;;;;;;19.94;75.64;101527.41;10485811;28;20035;-73
2021/07/15 07:26:58;;;;;;;21.55;9.55;;;;;;;20.45;74.61;101616.38;10473223;28;20500;-74
2021/07/15 07:31:59;;;;;;;17.63;9.15;;;;;;;20.49;74.98;101594.75;10477279;28;20036;-74
2021/07/15 07:36:59;;;;;;;29.70;9.10;;;;;;;20.63;74.73;101615.38;10501458;28;20147;-74
2021/07/15 07:42:00;;;;;;;18.33;8.13;;;;;;;20.44;74.93;101614.72;10484398;28;20365;-74
2021/07/15 07:47:00;;;;;;;13.43;8.73;;;;;;;20.25;74.40;101567.31;10475303;28;20044;-74
2021/07/15 07:52:02;;;;;;;14.05;7.57;;;;;;;20.65;72.82;101616.81;10441921;28;20033;-74
2021/07/15 07:57:03;;;;;;;13.23;9.15;;;;;;;20.48;74.67;101554.53;10476102;28;20437;-74
2021/07/15 08:02:03;;;;;;;14.00;9.13;;;;;;;21.11;73.56;101631.38;10501617;28;20040;-73
2021/07/15 08:07:06;;;;;;;11.77;9.02;;;;;;;21.53;73.20;101628.19;10482538;28;20529;-79
2021/07/15 08:12:07;;;;;;;21.23;8.48;;;;;;;21.47;72.24;101611.84;10483203;28;20037;-74
2021/07/15 08:17:07;;;;;;;13.88;7.15;;;;;;;21.92;71.34;101641.13;10500908;28;20113;-73
2021/07/15 08:22:08;;;;;;;14.40;7.45;;;;;;;21.96;72.36;101628.53;10485036;28;20040;-73
2021/07/15 08:27:08;;;;;;;15.38;7.25;;;;;;;22.03;70.80;101635.50;10482015;28;20044;-74
2021/07/15 08:32:08;;;;;;;10.68;8.02;;;;;;;21.85;72.25;101649.59;10499924;28;20064;-72
2021/07/15 08:37:09;;;;;;;23.23;9.02;;;;;;;21.83;68.63;101649.03;10481768;28;20052;-73
2021/07/15 08:42:09;;;;;;;11.18;7.55;;;;;;;21.72;71.85;101663.75;10499064;28;20056;-73
2021/07/15 08:47:11;;;;;;;12.45;7.43;;;;;;;21.70;71.34;101665.94;10481960;28;20487;-73
2021/07/15 08:52:15;;;;;;;13.80;7.93;;;;;;;21.59;71.29;101682.31;10481058;28;20040;-72
2021/07/15 08:57:15;;;;;;;10.52;7.60;;;;;;;;;;10498892;28;20039;-73
2021/07/15 09:02:18;;;;;;;7.95;6.85;;;;;;;21.20;71.61;101655.75;10481210;28;20486;-72
2021/07/15 09:07:18;;;;;;;13.35;8.45;;;;;;;21.69;71.01;101672.53;10498420;28;20028;-73
2021/07/15 09:12:19;;;;;;;15.93;7.47;;;;;;;21.49;71.02;101697.84;10480864;28;20047;-74
2021/07/15 09:17:27;;;;;;;17.25;8.95;;;;;;;21.22;71.37;101686.63;10479738;28;20144;-74
2021/07/15 09:22:27;;;;;;;9.73;6.88;;;;;;;21.19;71.63;101700.91;10499771;28;20052;-76
2021/07/15 09:27:29;;;;;;;12.93;8.50;;;;;;;21.07;72.51;101657.75;10478730;28;20058;-76
2021/07/15 09:32:29;;;;;;;11.88;6.70;;;;;;;21.40;72.41;101713.13;10540770;28;20130;-74
2021/07/15 09:44:07;;;;;;;9.95;7.93;;;;;;;21.17;72.86;101694.81;10823299;22;20080;-73
2021/07/15 09:49:08;;;;;;;18.67;8.93;;;;;;;21.58;72.19;101704.63;10478741;28;20135;-73
2021/07/15 09:54:10;;;;;;;24.73;9.10;;;;;;;22.00;72.93;101712.41;10496844;28;20392;-72
2021/07/15 09:59:10;;;;;;;18.85;7.63;;;;;;;21.68;70.82;101712.22;10478205;28;20198;-73
2021/07/15 10:04:10;;;;;;;10.80;7.70;;;;;;;21.58;70.87;101712.88;10522810;28;20089;-73
2021/07/15 10:09:22;;;;;;;15.30;9.35;;;;;;;21.48;72.18;101696.19;10538329;28;20040;-72
2021/07/15 10:14:32;;;;;;;21.95;9.15;;;;;;;21.73;72.58;101715.03;10536349;28;20040;-72
2021/07/15 10:19:33;;;;;;;19.67;9.45;;;;;;;21.71;70.64;101731.84;10537557;28;20107;-73
2021/07/15 10:24:34;;;;;;;17.20;8.00;;;;;;;21.36;70.73;101685.25;10536191;28;20539;-73
2021/07/15 10:29:34;;;;;;;10.18;8.52;;;;;;;21.07;72.04;101677.03;10537888;28;20035;-74
2021/07/15 10:34:34;;;;;;;21.42;9.35;;;;;;;;;;10511667;28;20038;-75
2021/07/15 10:39:37;;;;;;;12.18;7.45;;;;;;;21.60;71.05;101732.75;10546887;28;20048;-73
2021/07/15 10:44:39;;;;;;;23.65;9.02;;;;;;;21.83;72.32;101691.22;10444295;28;20052;-73
2021/07/15 10:49:40;;;;;;;10.30;7.72;;;;;;;21.83;71.55;101720.72;10503194;28;20056;-73
2021/07/15 10:54:41;;;;;;;22.08;8.68;;;;;;;21.88;70.21;101717.19;10504218;28;20471;-73
2021/07/15 10:59:41;;;;;;;13.00;8.73;;;;;;;21.80;72.70;101737.78;10507120;28;20036;-73
2021/07/15 11:04:42;;;;;;;13.45;8.32;;;;;;;21.49;71.35;101737.28;10545461;28;20028;-74
2021/07/15 11:09:42;;;;;;;14.45;8.32;;;;;;;21.62;69.52;101735.28;10544873;28;20063;-75
2021/07/15 11:14:47;;;;;;;14.45;7.45;;;;;;;21.94;71.03;101732.72;10543855;28;20125;-73
2021/07/15 11:20:04;;;;;;;13.60;9.25;;;;;;;22.19;70.84;101757.94;10543543;28;20032;-73
2021/07/15 11:25:11;;;;;;;11.23;8.00;;;;;;;22.17;70.93;101749.09;10526399;28;20051;-74
2021/07/15 11:30:33;;;;;;;12.70;7.05;;;;;;;22.32;72.46;101751.22;10543240;28;20028;-73
2021/07/15 11:35:33;;;;;;;10.75;6.57;;;;;;;21.96;72.55;101712.09;10543826;28;20102;-73
2021/07/15 11:40:41;;;;;;;23.60;8.77;;;;;;;21.82;71.21;101708.00;10517609;28;20036;-72
2021/07/15 11:46:01;;;;;;;14.98;8.73;;;;;;;22.18;71.81;101692.00;10542666;28;20048;-74
2021/07/15 11:51:22;;;;;;;14.40;7.10;;;;;;;23.05;70.39;101748.25;10524591;28;20471;-74
2021/07/15 11:56:22;;;;;;;12.85;7.45;;;;;;;22.93;65.88;101757.53;10531087;28;20029;-74
2021/07/15 12:01:24;;;;;;;10.25;6.15;;;;;;;23.03;67.86;101745.75;10501109;28;20040;-74
2021/07/15 12:06:24;;;;;;;9.88;7.32;;;;;;;23.13;67.64;101779.03;10501875;28;20044;-78
2021/07/15 12:11:24;;;;;;;7.68;5.68;;;;;;;22.98;67.75;101787.97;10487456;28;20475;-77
2021/07/15 12:16:25;;;;;;;7.10;5.38;;;;;;;22.67;68.81;101791.44;10517668;28;20032;-74
2021/07/15 12:21:25;;;;;;;15.80;7.03;;;;;;;21.83;67.26;101588.38;10530833;28;20035;-73
2021/07/15 12:26:26;;;;;;;10.85;6.07;;;;;;;22.84;66.92;101744.41;10541603;28;20044;-73
2021/07/15 12:31:26;;;;;;;19.05;6.75;;;;;;;23.66;66.28;101790.28;10523186;28;20067;-75
2021/07/15 12:36:27;;;;;;;8.82;5.15;;;;;;;23.64;65.63;101748.22;10495387;28;20533;-74
2021/07/15 12:41:29;;;;;;;6.32;5.82;;;;;;;24.48;66.85;101788.97;10497801;28;20194;-73
2021/07/15 12:46:36;;;;;;;5.70;4.95;;;;;;;24.79;65.08;101800.16;10510647;28;20052;-74
2021/07/15 12:51:42;;;;;;;5.10;4.60;;;;;;;24.75;64.73;101796.28;10539205;28;20043;-74
2021/07/15 12:56:43;;;;;;;8.60;5.38;;;;;;;24.41;65.05;101782.84;10540790;28;20028;-75
2021/07/15 13:01:44;;;;;;;8.63;5.38;;;;;;;24.04;65.49;101791.16;10540089;28;20035;-74
2021/07/15 13:06:52;;;;;;;15.57;5.47;;;;;;;24.72;63.89;101797.63;10539695;28;20050;-75
2021/07/15 13:17:13;;;;;;;11.02;4.95;;;;;;;24.47;66.62;101800.28;10538252;28;20135;-76
2021/07/15 13:22:18;;;;;;;14.52;4.75;;;;;;;24.28;65.69;101769.44;10522136;28;20079;-75
2021/07/15 13:27:19;;;;;;;17.58;5.25;;;;;;;24.42;65.57;101805.81;10521568;28;20085;-76
2021/07/15 13:32:27;;;;;;;8.63;5.80;;;;;;;24.62;65.88;101794.84;10505483;28;20368;-75
2021/07/15 13:37:29;;;;;;;11.50;6.53;;;;;;;25.11;63.38;101822.19;10540047;28;20506;-75
2021/07/15 13:42:32;;;;;;;10.63;5.80;;;;;;;25.47;65.36;101811.19;10539214;28;20442;-75
2021/07/15 13:47:37;;;;;;;8.73;5.35;;;;;;;25.55;64.11;101780.13;10538174;28;20117;-74
2021/07/15 13:52:38;;;;;;;11.52;5.30;;;;;;;25.44;62.68;101831.16;10537840;28;20113;-75
2021/07/15 13:57:51;;;;;;;6.72;4.38;;;;;;;24.55;63.12;101774.88;10538327;28;20125;-75
2021/07/15 14:02:55;;;;;;;12.63;5.68;;;;;;;24.78;63.99;101838.13;10521031;28;20375;-75
2021/07/15 14:07:56;;;;;;;10.13;4.63;;;;;;;24.31;63.30;101797.44;10487343;28;20032;-75
2021/07/15 14:12:57;;;;;;;5.35;4.60;;;;;;;24.91;65.34;101831.25;10538252;28;20182;-75
2021/07/15 14:18:16;;;;;;;6.47;4.63;;;;;;;25.03;60.42;101842.09;10538975;28;20036;-75
2021/07/15 14:23:19;;;;;;;6.72;4.25;;;;;;;24.67;62.10;101716.50;10521213;28;20116;-74
2021/07/15 14:28:25;;;;;;;10.43;5.63;;;;;;;25.16;62.36;101805.56;10504208;28;20044;-74
2021/07/15 14:33:25;;;;;;;8.82;6.07;;;;;;;25.04;61.77;101846.53;10521456;28;20387;-75
2021/07/15 14:38:26;;;;;;;13.60;5.15;;;;;;;25.54;62.25;101858.88;10536871;28;20127;-75
2021/07/15 14:43:26;;;;;;;6.53;4.50;;;;;;;25.47;63.28;101848.06;10536459;28;20109;-75
2021/07/15 14:48:26;;;;;;;12.77;5.25;;;;;;;25.75;64.85;101857.81;10520276;28;20040;-74
2021/07/15 14:53:27;;;;;;;13.57;4.82;;;;;;;25.35;64.87;101832.78;10519907;28;20561;-74
2021/07/15 14:58:27;;;;;;;4.35;3.80;;;;;;;25.64;62.51;101845.03;10538068;28;20047;-75
2021/07/15 15:03:28;;;;;;;10.40;3.60;;;;;;;25.73;62.54;101856.41;10519692;28;20461;-75
2021/07/15 15:08:28;;;;;;;4.88;4.03;;;;;;;25.64;63.95;101878.31;10537058;28;20086;-75
2021/07/15 15:13:30;;;;;;;10.35;5.47;;;;;;;25.04;62.86;101865.94;10536514;28;20536;-74
2021/07/15 15:18:30;;;;;;;9.20;5.10;;;;;;;24.63;63.06;101818.66;10541962;28;20390;-75
2021/07/15 15:23:30;;;;;;;16.80;6.30;;;;;;;25.01;63.55;101891.41;10544285;28;20035;-76
2021/07/15 15:28:31;;;;;;;15.32;5.88;;;;;;;24.17;62.86;101825.84;10545277;28;20048;-77
2021/07/15 15:33:31;;;;;;;22.77;6.50;;;;;;;24.00;63.15;101853.66;10527934;28;20032;-76
2021/07/15 15:38:39;;;;;;;5.05;4.60;;;;;;;23.80;64.42;101880.06;10543421;28;20159;-75
2021/07/15 15:43:43;;;;;;;20.50;6.07;;;;;;;23.81;66.14;101884.50;10559403;28;20058;-75
2021/07/15 15:48:44;;;;;;;7.30;5.30;;;;;;;24.16;64.70;101883.13;10544142;28;20110;-75
2021/07/15 15:53:44;;;;;;;5.22;4.82;;;;;;;24.42;66.02;101883.34;10544839;28;20036;-77
2021/07/15 15:58:45;;;;;;;19.55;6.45;;;;;;;24.58;64.68;101888.69;10543067;28;20094;-75
2021/07/15 16:03:45;;;;;;;9.07;5.90;;;;;;;25.41;64.59;101895.47;10525980;28;20064;-73
2021/07/15 16:08:47;;;;;;;9.18;5.30;;;;;;;25.70;64.89;101896.63;10542655;28;20052;-74
2021/07/15 16:13:47;;;;;;;8.30;6.10;;;;;;;24.97;60.84;101890.28;10541767;28;20040;-75
2021/07/15 16:18:47;;;;;;;13.45;5.35;;;;;;;24.75;65.09;101907.91;10543158;28;20043;-75
2021/07/15 16:23:48;;;;;;;11.35;6.53;;;;;;;25.32;63.20;101895.16;10543077;28;20474;-75
2021/07/15 16:28:48;;;;;;;11.38;5.50;;;;;;;25.24;60.14;101902.09;10541213;28;20028;-75
2021/07/15 16:33:49;;;;;;;6.32;5.32;;;;;;;24.24;59.67;101895.63;10542926;28;20028;-76
2021/07/15 16:38:50;;;;;;;10.82;6.60;;;;;;;23.65;61.31;101897.31;10542677;28;20059;-75
2021/07/15 16:43:50;;;;;;;8.50;5.97;;;;;;;24.07;66.01;101890.25;10541264;28;20118;-75
2021/07/15 16:48:50;;;;;;;7.93;6.28;;;;;;;23.96;66.15;101913.38;10542196;28;20039;-76
2021/07/15 16:53:51;;;;;;;10.23;5.15;;;;;;;23.81;66.33;101916.84;10541779;28;20035;-76
2021/07/15 16:58:51;;;;;;;10.13;6.03;;;;;;;23.58;65.97;101912.41;10542401;28;20044;-76
2021/07/15 17:03:52;;;;;;;13.88;5.57;;;;;;;23.26;66.06;101913.19;10541427;28;20028;-75
2021/07/15 17:08:52;;;;;;;5.22;4.72;;;;;;;23.24;67.07;101920.88;10541072;28;20117;-75
2021/07/15 17:13:53;;;;;;;11.65;5.97;;;;;;;22.83;67.50;101889.94;10539240;28;20111;-75
2021/07/15 17:18:53;;;;;;;13.95;6.00;;;;;;;22.37;67.72;101872.72;10539561;28;20044;-74
2021/07/15 17:23:54;;;;;;;20.38;6.72;;;;;;;22.73;69.17;101932.06;10539429;28;20117;-75
2021/07/15 17:28:55;;;;;;;7.47;4.80;;;;;;;22.25;68.09;101938.22;10556199;28;20043;-75
2021/07/15 17:33:56;;;;;;;12.88;6.05;;;;;;;22.13;67.87;101920.88;10522120;28;20036;-74
2021/07/15 17:38:56;;;;;;;11.65;7.13;;;;;;;21.80;70.79;101941.81;10539259;28;20051;-74
2021/07/15 17:43:59;;;;;;;6.65;5.63;;;;;;;21.46;69.84;101935.34;10538949;28;20098;-76
2021/07/15 17:49:02;;;;;;;7.28;5.50;;;;;;;21.06;69.18;101911.38;10538886;28;20471;-76
2021/07/15 17:54:02;;;;;;;9.32;5.57;;;;;;;21.12;69.62;101957.19;10556059;28;20038;-77
2021/07/15 17:59:03;;;;;;;9.15;6.60;;;;;;;20.78;70.81;101968.03;10539747;28;20439;-75
2021/07/15 18:04:04;;;;;;;21.08;7.72;;;;;;;20.23;71.45;101828.03;10521201;28;20119;-76
2021/07/15 18:09:04;;;;;;;12.38;6.63;;;;;;;20.74;71.83;101877.88;10539305;28;20123;-76
2021/07/15 18:14:07;;;;;;;10.63;6.22;;;;;;;20.91;71.49;101925.63;10538900;28;20472;-74
2021/07/15 18:19:08;;;;;;;7.20;6.05;;;;;;;21.42;70.66;101970.00;10537838;28;20064;-73
2021/07/15 18:24:10;;;;;;;10.43;6.30;;;;;;;21.53;71.36;101967.19;10521213;28;20036;-74
2021/07/15 18:29:10;;;;;;;9.30;5.78;;;;;;;21.40;73.48;101958.38;10537674;28;20119;-76
2021/07/15 18:34:11;;;;;;;14.73;6.72;;;;;;;21.14;71.88;101980.66;10538670;28;20458;-76
2021/07/15 18:39:11;;;;;;;14.77;6.95;;;;;;;20.96;72.35;101986.31;10539408;28;20060;-75
2021/07/15 18:44:12;;;;;;;10.85;5.28;;;;;;;21.07;70.88;101988.22;10537821;28;20525;-75
2021/07/15 18:49:12;;;;;;;5.70;4.43;;;;;;;20.63;72.81;101929.97;10537542;28;20043;-76
2021/07/15 18:54:15;;;;;;;9.02;5.50;;;;;;;20.99;71.40;101968.47;10544689;28;20060;-75
2021/07/15 18:59:17;;;;;;;9.25;5.38;;;;;;;20.83;70.28;101972.78;10544929;28;20082;-75
2021/07/15 19:04:19;;;;;;;12.02;5.88;;;;;;;20.57;71.39;101972.19;10545402;28;20031;-75
2021/07/15 19:09:19;;;;;;;9.68;7.22;;;;;;;20.58;72.96;102017.06;10544893;28;20039;-75
2021/07/15 19:14:20;;;;;;;18.90;6.53;;;;;;;20.25;72.78;102001.91;10545777;28;20448;-75
2021/07/15 19:19:20;;;;;;;13.65;7.18;;;;;;;20.44;74.25;102028.25;10544541;28;20035;-75
2021/07/15 19:24:20;;;;;;;8.88;6.03;;;;;;;20.41;72.78;102038.91;10527350;28;20482;-75
2021/07/15 19:29:21;;;;;;;13.77;5.63;;;;;;;20.36;72.86;102036.03;10561444;28;20036;-75
2021/07/15 19:34:24;;;;;;;9.00;6.28;;;;;;;20.03;73.19;102031.00;10560963;28;20036;-75
2021/07/15 19:39:24;;;;;;;6.95;6.18;;;;;;;19.98;73.44;102037.22;10543948;28;20045;-75
2021/07/15 19:44:24;;;;;;;14.75;7.00;;;;;;;20.09;73.16;102049.31;10542916;28;20317;-74
2021/07/15 19:49:25;;;;;;;8.77;5.07;;;;;;;20.11;73.69;102047.19;10526444;28;20074;-74
2021/07/15 19:54:25;;;;;;;11.52;6.63;;;;;;;20.01;73.80;102055.16;10543204;28;20505;-75
2021/07/15 19:59:25;;;;;;;9.30;5.07;;;;;;;20.08;73.39;102081.47;10542674;28;20052;-74
2021/07/15 20:04:26;;;;;;;4.90;4.28;;;;;;;19.61;73.17;102009.75;10543106;28;20032;-74
2021/07/15 20:09:26;;;;;;;11.02;5.97;;;;;;;19.90;73.44;102073.25;10543586;28;20430;-75
2021/07/15 20:14:27;;;;;;;21.20;6.88;;;;;;;19.97;72.71;102096.88;10524771;28;20040;-74
2021/07/15 20:19:27;;;;;;;14.00;6.53;;;;;;;19.95;74.40;102092.66;10559417;28;20047;-75
2021/07/15 20:24:28;;;;;;;10.20;5.28;;;;;;;19.84;73.67;102072.25;10542936;28;20120;-75
2021/07/15 20:29:31;;;;;;;10.10;6.90;;;;;;;19.62;73.14;102047.16;10543031;28;20032;-74
2021/07/15 20:34:32;;;;;;;13.48;6.40;;;;;;;19.72;72.19;102094.22;10541433;28;20081;-75
2021/07/15 20:39:32;;;;;;;16.27;6.38;;;;;;;19.59;74.98;102075.09;10541646;28;20368;-76
2021/07/15 20:44:33;;;;;;;6.93;5.68;;;;;;;19.86;73.81;102113.28;10540313;28;20130;-74
2021/07/15 20:49:34;;;;;;;8.88;5.28;;;;;;;19.74;73.20;102097.53;10540959;28;20028;-74
2021/07/15 20:54:34;;;;;;;3.78;3.47;;;;;;;19.62;71.67;102104.88;10507234;28;20111;-75
2021/07/15 20:59:35;;;;;;;4.57;4.15;;;;;;;19.65;73.58;102107.16;10541775;28;20039;-75
2021/07/15 21:04:35;;;;;;;5.40;4.20;;;;;;;19.79;72.35;102118.88;10540238;28;20476;-75
2021/07/15 21:09:36;;;;;;;15.70;4.65;;;;;;;19.51;72.23;102108.34;10541531;28;20480;-75
2021/07/15 21:14:37;;;;;;;5.22;4.55;;;;;;;19.45;72.48;102081.78;10505604;28;20043;-74
2021/07/15 21:19:37;;;;;;;4.25;3.88;;;;;;;19.88;72.20;102122.16;10541005;28;20119;-74
2021/07/15 21:24:37;;;;;;;10.13;5.00;;;;;;;19.80;71.84;102138.94;10540255;28;20028;-74
2021/07/15 21:29:38;;;;;;;9.40;4.45;;;;;;;19.47;73.01;102087.91;10540304;28;20040;-73
2021/07/15 21:34:38;;;;;;;13.60;6.13;;;;;;;19.91;71.85;102133.53;10556264;28;20480;-74
2021/07/15 21:39:39;;;;;;;7.03;4.72;;;;;;;19.68;70.58;102105.88;10540057;28;20036;-73
2021/07/15 21:44:39;;;;;;;23.02;7.38;;;;;;;19.88;72.18;102124.91;10539122;28;20059;-74
2021/07/15 21:49:40;;;;;;;9.90;4.78;;;;;;;19.72;73.57;102135.44;10538175;28;20101;-75
2021/07/15 21:54:40;;;;;;;12.20;5.20;;;;;;;19.43;74.03;102079.28;10538557;28;20040;-74
2021/07/15 21:59:41;;;;;;;14.90;7.07;;;;;;;19.77;72.58;102153.97;10538392;28;20390;-74
2021/07/15 22:04:41;;;;;;;13.45;6.40;;;;;;;19.54;73.84;102140.88;10521216;28;20064;-74
2021/07/15 22:09:42;;;;;;;27.45;8.48;;;;;;;19.39;73.64;102165.94;10538375;28;20039;-74
2021/07/15 22:14:42;;;;;;;17.15;7.43;;;;;;;19.37;74.54;102165.34;10520112;28;20024;-73
2021/07/15 22:19:43;;;;;;;16.55;8.25;;;;;;;19.48;75.15;102172.00;10521768;28;20039;-76
2021/07/15 22:24:44;;;;;;;10.90;6.32;;;;;;;19.52;71.33;102173.22;10538606;28;20090;-75
2021/07/15 22:29:44;;;;;;;18.40;8.00;;;;;;;19.55;71.34;102169.19;10538714;28;20040;-73
2021/07/15 22:34:45;;;;;;;18.67;7.68;;;;;;;19.52;72.59;102149.31;10538895;28;20064;-74
2021/07/15 22:39:45;;;;;;;16.23;7.57;;;;;;;19.57;72.23;102140.41;10554326;28;20035;-73
2021/07/15 22:44:46;;;;;;;13.57;7.50;;;;;;;19.43;73.88;102188.31;10537634;28;20083;-73
2021/07/15 22:49:46;;;;;;;20.65;8.52;;;;;;;19.21;73.69;102191.47;10538681;28;20082;-74
2021/07/15 22:54:47;;;;;;;21.20;7.28;;;;;;;19.07;75.07;102192.63;10554640;28;20035;-76
2021/07/15 22:59:47;;;;;;;14.73;8.00;;;;;;;19.14;73.74;102190.66;10538341;28;20471;-75
2021/07/15 23:04:47;;;;;;;18.00;6.43;;;;;;;19.14;72.67;102179.69;10538377;28;20032;-75